»·PEaware :: N799DS KSBA-KOXR

N799DS :: KSBA-KOXR

FLIGHT INFORMATION

Flight Status: Arrived
Operator: Privately registered:
United States
More flights under this callsign
Pilot: Wolfgang B. (15069)
Aircraft: CESSNA 172 SKYHAWK
(C172)
More flights by this aircraft type
Origin: KSBA Santa Barbara Mun
United States
Destination: KOXR Oxnard
United States
More flights between these airports :: More routes between these airports
Route: +SBAP35
File this flight plan on PilotEdge
Remarks:
Altitude:
(Current/Filed)
3,000ft
Speed:
(Current/Filed)
120kts
Departed: 21-Oct-20 01:18 PM
Arrived: 21-Oct-20 01:54 PM
Distance/Time
Traveled:
35nm/0:36
Distance/Time
To Go:
Arrived

Flight Plot

Page will automatically refresh every two minutes.

Flight plan parsing failed; only flown route is shown


Map Options




Map Legend


Flown Route
Filed Route
Departure Airport
Arrival Airport
Navaid (VOR, NDB)
Fix

Horizontal Profiles

Position Reports

Time Latitude Longitude Heading Altitude Ground
Speed
21-Oct-20 13:03 34.432569 -119.835085 71 14ft 0kts
21-Oct-20 13:04 34.432569 -119.835085 71 14ft 0kts
21-Oct-20 13:05 34.432569 -119.835085 71 14ft 0kts
21-Oct-20 13:06 34.432569 -119.835085 71 14ft 0kts
21-Oct-20 13:07 34.432569 -119.835085 71 14ft 0kts
21-Oct-20 13:08 34.432569 -119.835085 71 14ft 0kts
21-Oct-20 13:09 34.432569 -119.835085 71 14ft 0kts
21-Oct-20 13:10 34.432569 -119.835085 71 14ft 0kts
21-Oct-20 13:11 34.431941 -119.835581 248 14ft 12kts
21-Oct-20 13:12 34.430747 -119.839588 243 14ft 0kts
21-Oct-20 13:13 34.430747 -119.839589 243 14ft 0kts
21-Oct-20 13:14 34.430747 -119.839589 243 14ft 0kts
21-Oct-20 13:15 34.430747 -119.839589 243 14ft 0kts
21-Oct-20 13:16 34.429786 -119.840058 165 14ft 16kts
21-Oct-20 13:17 34.411302 -119.835646 169 682ft 69kts
21-Oct-20 13:18 34.391058 -119.830662 166 1533ft 70kts
21-Oct-20 13:19 34.370604 -119.826510 163 2352ft 70kts
21-Oct-20 13:20 34.350886 -119.818886 159 3012ft 81kts
21-Oct-20 13:21 34.340213 -119.781656 107 3018ft 121kts
21-Oct-20 13:22 34.330163 -119.739246 108 3017ft 120kts
21-Oct-20 13:23 34.320050 -119.697231 108 3016ft 120kts
21-Oct-20 13:24 34.309913 -119.655206 108 3015ft 120kts
21-Oct-20 13:25 34.299767 -119.613351 103 3014ft 120kts
21-Oct-20 13:26 34.289635 -119.571328 104 3013ft 121kts
21-Oct-20 13:27 34.279228 -119.528382 104 3011ft 123kts
21-Oct-20 13:28 34.268728 -119.485144 104 3010ft 124kts
21-Oct-20 13:29 34.259540 -119.441830 91 3187ft 108kts
21-Oct-20 13:30 34.258006 -119.411747 90 4016ft 99kts
21-Oct-20 13:31 34.256091 -119.368908 91 4010ft 126kts
21-Oct-20 13:32 34.254554 -119.323379 87 4018ft 127kts
21-Oct-20 13:33 34.255880 -119.278103 86 4018ft 126kts
21-Oct-20 13:34 34.257216 -119.233511 86 4018ft 126kts
21-Oct-20 13:35 34.258633 -119.188800 86 4018ft 127kts
21-Oct-20 13:36 34.260314 -119.143200 86 4018ft 128kts
21-Oct-20 13:37 34.262400 -119.097280 86 4018ft 129kts
21-Oct-20 13:38 34.264949 -119.052247 86 4018ft 129kts
21-Oct-20 13:39 34.267990 -119.006996 86 4018ft 129kts
21-Oct-20 13:40 34.271191 -118.961751 86 4018ft 129kts
21-Oct-20 13:41 34.274438 -118.917521 86 4018ft 129kts
21-Oct-20 13:42 34.255390 -118.884193 142 4018ft 123kts
21-Oct-20 13:43 34.228489 -118.888017 236 4018ft 117kts
21-Oct-20 13:44 34.211426 -118.920364 236 3674ft 100kts
21-Oct-20 13:45 34.201066 -118.953308 259 3619ft 97kts
21-Oct-20 13:46 34.199290 -118.989104 267 3424ft 102kts
21-Oct-20 13:47 34.199355 -119.025036 268 2897ft 104kts
21-Oct-20 13:48 34.199645 -119.059945 269 2341ft 102kts
21-Oct-20 13:49 34.199931 -119.093966 269 1787ft 100kts
21-Oct-20 13:50 34.200209 -119.127998 270 1234ft 101kts
21-Oct-20 13:51 34.200516 -119.161977 271 687ft 100kts
21-Oct-20 13:52 34.200744 -119.192869 272 189ft 74kts
21-Oct-20 13:53 34.199970 -119.207126 179 37ft 4kts
21-Oct-20 13:55 34.199960 -119.207125 177 37ft 0kts
21-Oct-20 13:56 34.199753 -119.202357 92 40ft 28kts
21-Oct-20 13:57 34.198766 -119.198327 86 43ft 0kts
21-Oct-20 13:58 34.198766 -119.198327 86 43ft 0kts
21-Oct-20 13:59 34.198766 -119.198327 86 43ft 0kts
21-Oct-20 14:00 34.198766 -119.198327 86 43ft 0kts
21-Oct-20 14:01 34.198766 -119.198327 86 43ft 0kts
21-Oct-20 14:02 34.198766 -119.198327 86 43ft 0kts
21-Oct-20 14:03 34.198766 -119.198327 86 43ft 0kts
21-Oct-20 14:04 34.198766 -119.198327 86 43ft 0kts
21-Oct-20 14:05 34.198766 -119.198327 86 43ft 0kts

Navigation Log

Ident Type
Flight plan parsing failed, navigation log unavailable